createdAt,value
2023-06-03T00:00:01.596Z,1.50
2023-06-03T00:05:06.060Z,1.50
2023-06-03T00:10:09.606Z,1.30
2023-06-03T00:15:12.582Z,1.30
2023-06-03T00:20:15.593Z,1.40
2023-06-03T00:25:18.462Z,1.40
2023-06-03T00:30:21.351Z,1.10
2023-06-03T00:35:24.570Z,1.40
2023-06-03T00:40:27.584Z,1.30
2023-06-03T00:45:30.636Z,1.30
2023-06-03T00:50:34.370Z,1.30
2023-06-03T00:55:38.518Z,1.30
2023-06-03T01:00:41.403Z,1.50
2023-06-03T01:05:47.020Z,1.20
2023-06-03T01:11:06.725Z,1.30
2023-06-03T01:16:10.141Z,1.30
2023-06-03T01:21:13.776Z,1.40
2023-06-03T01:26:18.035Z,1.40
2023-06-03T01:31:21.063Z,1.30
2023-06-03T01:36:24.099Z,1.20
2023-06-03T01:41:27.006Z,1.60
2023-06-03T01:46:29.985Z,1.20
2023-06-03T01:51:32.998Z,1.20
2023-06-03T01:56:36.218Z,1.00
2023-06-03T02:01:44.475Z,1.20
2023-06-03T02:06:56.794Z,1.30
2023-06-03T02:12:01.207Z,1.10
2023-06-03T02:17:04.368Z,1.20
2023-06-03T02:22:07.951Z,1.00
2023-06-03T02:27:11.748Z,0.80
2023-06-03T02:32:14.667Z,0.90
2023-06-03T02:37:17.645Z,1.20
2023-06-03T02:42:22.121Z,1.10
2023-06-03T02:47:25.050Z,1.30
2023-06-03T02:52:27.942Z,1.20
2023-06-03T02:57:30.936Z,1.00
2023-06-03T03:02:34.458Z,1.10
2023-06-03T03:07:38.085Z,1.10
2023-06-03T03:12:40.962Z,1.30
2023-06-03T03:17:44.048Z,1.30
2023-06-03T03:22:47.111Z,1.00
2023-06-03T03:27:50.092Z,1.20
2023-06-03T03:32:53.085Z,0.90
2023-06-03T03:38:04.930Z,1.00
2023-06-03T03:43:15.951Z,1.30
2023-06-03T03:48:18.926Z,1.00
2023-06-03T03:53:26.499Z,1.20
2023-06-03T03:58:41.606Z,1.00
2023-06-03T04:03:46.795Z,1.20
2023-06-03T04:08:49.716Z,1.20
2023-06-03T04:13:52.972Z,1.00
2023-06-03T04:18:55.905Z,1.00
2023-06-03T04:23:59.020Z,1.20
2023-06-03T04:29:03.269Z,1.30
2023-06-03T04:34:06.542Z,1.20
2023-06-03T04:39:09.892Z,1.20
2023-06-03T04:44:14.418Z,1.00
2023-06-03T04:49:17.469Z,1.10
2023-06-03T04:54:25.280Z,1.10
2023-06-03T04:59:28.323Z,1.20
2023-06-03T05:04:31.285Z,1.00
2023-06-03T05:09:34.236Z,1.30
2023-06-03T05:14:37.112Z,1.30
2023-06-03T05:19:40.170Z,1.40
2023-06-03T05:24:43.190Z,1.20
2023-06-03T05:29:46.959Z,1.20
2023-06-03T05:34:49.915Z,1.10
2023-06-03T05:39:52.806Z,1.10
2023-06-03T05:44:56.177Z,1.30
2023-06-03T05:49:59.169Z,1.40
2023-06-03T05:55:02.087Z,1.20
2023-06-03T06:00:06.104Z,1.10
2023-06-03T06:05:09.438Z,0.90
2023-06-03T06:10:12.987Z,1.10
2023-06-03T06:15:16.099Z,0.90
2023-06-03T06:20:19.455Z,0.90
2023-06-03T06:25:22.809Z,0.90
2023-06-03T06:30:25.842Z,0.90
2023-06-03T06:35:29.594Z,0.80
2023-06-03T06:40:34.938Z,1.00
2023-06-03T06:45:38.182Z,0.80
2023-06-03T06:50:47.966Z,0.80
2023-06-03T06:55:58.709Z,0.90
2023-06-03T07:01:02.289Z,0.70
2023-06-03T07:06:06.274Z,0.90
2023-06-03T07:11:09.745Z,0.60
2023-06-03T07:16:13.071Z,0.70
2023-06-03T07:21:16.878Z,0.60
2023-06-03T07:26:19.843Z,0.80
2023-06-03T07:31:22.849Z,0.80
2023-06-03T07:36:27.759Z,0.70
2023-06-03T07:41:38.134Z,0.60
2023-06-03T07:46:55.994Z,0.70
2023-06-03T07:51:58.837Z,0.50
2023-06-03T07:57:02.647Z,0.50
2023-06-03T08:02:07.747Z,0.80
2023-06-03T08:07:11.081Z,0.60
2023-06-03T08:12:14.170Z,0.60
2023-06-03T08:17:17.490Z,0.70
2023-06-03T08:22:42.964Z,0.60
2023-06-03T08:27:46.632Z,0.80
2023-06-03T08:32:51.081Z,0.60
2023-06-03T08:37:54.110Z,0.50
2023-06-03T08:43:01.815Z,0.70
2023-06-03T08:48:25.049Z,0.60
2023-06-03T08:53:27.928Z,0.50
2023-06-03T08:58:35.050Z,0.50
2023-06-03T09:03:38.230Z,0.60
2023-06-03T09:08:41.606Z,0.60
2023-06-03T09:13:44.481Z,0.70
2023-06-03T09:18:49.612Z,0.60
2023-06-03T09:23:52.731Z,0.60
2023-06-03T09:28:55.968Z,0.60
2023-06-03T09:33:59.234Z,0.70
2023-06-03T09:39:03.546Z,0.70
2023-06-03T09:44:10.039Z,0.70
2023-06-03T09:49:20.417Z,0.90
2023-06-03T09:54:31.674Z,0.60
2023-06-03T09:59:34.606Z,0.70
2023-06-03T10:04:47.921Z,0.60
2023-06-03T10:09:51.188Z,0.50
2023-06-03T10:14:54.581Z,0.50
2023-06-03T10:19:57.770Z,0.40
2023-06-03T10:25:00.741Z,0.50
2023-06-03T10:30:05.963Z,0.50
2023-06-03T10:35:11.942Z,0.50
2023-06-03T10:40:14.936Z,0.50
2023-06-03T10:45:17.918Z,0.50
2023-06-03T10:50:48.666Z,0.50
2023-06-03T10:56:14.470Z,0.40
2023-06-03T11:01:17.581Z,0.50
2023-06-03T11:06:22.491Z,0.40
2023-06-03T11:11:43.525Z,0.50
2023-06-03T11:16:58.829Z,0.50
2023-06-03T11:22:06.177Z,0.60
2023-06-03T11:27:14.973Z,0.40
2023-06-03T11:32:36.486Z,0.50
2023-06-03T11:37:42.712Z,0.60
2023-06-03T11:42:52.997Z,0.40
2023-06-03T11:48:08.629Z,0.50
2023-06-03T11:53:33.233Z,0.90
2023-06-03T11:58:37.421Z,0.60
2023-06-03T12:03:40.448Z,0.50
2023-06-03T12:08:50.590Z,0.60
2023-06-03T12:13:53.872Z,0.60
2023-06-03T12:18:56.906Z,0.50
2023-06-03T12:23:59.928Z,0.70
2023-06-03T12:29:13.712Z,0.50
2023-06-03T12:34:38.349Z,0.60
2023-06-03T12:39:49.665Z,0.50
2023-06-03T12:44:54.251Z,0.40
2023-06-03T12:50:10.687Z,0.30
2023-06-03T12:55:15.865Z,0.40
2023-06-03T13:00:23.585Z,0.40
2023-06-03T13:05:26.719Z,0.30
2023-06-03T13:10:30.234Z,0.40
2023-06-03T13:15:33.645Z,0.40
2023-06-03T13:20:36.592Z,0.50
2023-06-03T13:25:39.604Z,0.60
2023-06-03T13:30:42.530Z,0.50
2023-06-03T13:35:45.607Z,0.60
2023-06-03T13:40:48.469Z,0.60
2023-06-03T13:45:51.686Z,0.40
2023-06-03T13:50:54.804Z,0.40
2023-06-03T13:55:57.761Z,0.40
2023-06-03T14:01:00.677Z,0.40
2023-06-03T14:06:03.734Z,0.40
2023-06-03T14:16:11.659Z,0.60
2023-06-03T14:21:14.583Z,0.50
2023-06-03T14:26:19.760Z,0.50
2023-06-03T14:31:33.974Z,0.30
2023-06-03T14:36:39.506Z,0.60
2023-06-03T14:41:43.747Z,0.50
2023-06-03T14:46:46.820Z,0.50
2023-06-03T14:51:49.720Z,0.40
2023-06-03T14:56:52.803Z,0.80
2023-06-03T15:01:55.848Z,0.40
2023-06-03T15:06:58.959Z,0.50
2023-06-03T15:12:01.901Z,0.40
2023-06-03T15:17:05.101Z,0.40
2023-06-03T15:22:08.263Z,0.70
2023-06-03T15:27:11.737Z,0.50
2023-06-03T15:32:14.741Z,0.50
2023-06-03T15:37:17.679Z,0.40
2023-06-03T15:42:20.696Z,0.50
2023-06-03T15:47:24.431Z,0.60
2023-06-03T15:52:28.577Z,0.50
2023-06-03T15:57:31.687Z,0.50
2023-06-03T16:02:34.680Z,0.50
2023-06-03T16:07:37.825Z,0.50
2023-06-03T16:12:40.879Z,0.40
2023-06-03T16:17:43.925Z,0.60
2023-06-03T16:22:46.901Z,0.50
2023-06-03T16:27:51.802Z,0.60
2023-06-03T16:32:54.801Z,0.60
2023-06-03T16:37:57.723Z,0.70
2023-06-03T16:43:00.756Z,0.50
2023-06-03T16:48:04.141Z,0.50
2023-06-03T16:53:07.047Z,0.40
2023-06-03T16:58:10.001Z,0.50
2023-06-03T17:03:12.979Z,0.60
2023-06-03T17:08:16.077Z,0.60
2023-06-03T17:13:18.971Z,0.40
2023-06-03T17:18:21.866Z,0.50
2023-06-03T17:23:24.823Z,0.60
2023-06-03T17:28:27.910Z,0.50
2023-06-03T17:33:31.047Z,0.70
2023-06-03T17:38:34.014Z,0.50
2023-06-03T17:43:43.160Z,0.50
2023-06-03T17:48:46.159Z,0.60
2023-06-03T17:53:49.263Z,0.40
2023-06-03T17:58:52.428Z,0.60
2023-06-03T18:03:55.290Z,0.60
2023-06-03T18:08:58.752Z,0.90
2023-06-03T18:14:01.754Z,1.10
2023-06-03T18:19:04.838Z,0.80
2023-06-03T18:24:07.885Z,1.00
2023-06-03T18:29:10.820Z,1.30
2023-06-03T18:34:14.438Z,1.30
2023-06-03T18:39:17.517Z,1.40
2023-06-03T18:44:20.625Z,1.40
2023-06-03T18:49:23.588Z,1.40
2023-06-03T18:54:27.053Z,1.50
2023-06-03T18:59:30.262Z,1.80
2023-06-03T19:04:33.190Z,2.10
2023-06-03T19:09:36.375Z,2.30
2023-06-03T19:14:39.358Z,2.80
2023-06-03T19:19:42.596Z,2.60
2023-06-03T19:24:45.607Z,2.90
2023-06-03T19:29:48.534Z,3.10
2023-06-03T19:34:52.458Z,2.90
2023-06-03T19:39:56.553Z,3.30
2023-06-03T19:45:01.433Z,3.80
2023-06-03T19:50:05.197Z,3.60
2023-06-03T19:55:09.051Z,3.20
2023-06-03T20:00:13.244Z,3.30
2023-06-03T20:05:16.696Z,3.20
2023-06-03T20:10:19.696Z,3.40
2023-06-03T20:15:22.707Z,3.70
2023-06-03T20:20:25.652Z,3.30
2023-06-03T20:25:28.586Z,3.80
2023-06-03T20:30:32.262Z,3.50
2023-06-03T20:35:35.610Z,3.10
2023-06-03T20:40:38.958Z,3.20
2023-06-03T20:45:41.899Z,3.10
2023-06-03T20:50:44.836Z,3.50
2023-06-03T20:55:47.840Z,3.40
2023-06-03T21:00:50.781Z,3.50
2023-06-03T21:05:53.770Z,3.80
2023-06-03T21:10:56.885Z,3.60
2023-06-03T21:16:00.669Z,4.00
2023-06-03T21:21:03.751Z,3.90
2023-06-03T21:26:07.045Z,4.30
2023-06-03T21:31:10.142Z,4.10
2023-06-03T21:36:13.402Z,4.20
2023-06-03T21:41:16.273Z,4.30
2023-06-03T21:46:19.366Z,4.40
2023-06-03T21:51:22.604Z,4.30
2023-06-03T21:56:27.121Z,4.20
2023-06-03T22:01:31.091Z,3.90
2023-06-03T22:06:34.532Z,4.00
2023-06-03T22:11:37.390Z,4.10
2023-06-03T22:16:40.391Z,4.00
2023-06-03T22:21:44.498Z,4.00
2023-06-03T22:26:47.409Z,4.10
2023-06-03T22:31:50.331Z,4.00
2023-06-03T22:36:53.418Z,4.00
2023-06-03T22:41:56.773Z,4.20
2023-06-03T22:47:00.615Z,4.10
2023-06-03T22:52:03.917Z,4.80
2023-06-03T22:57:07.372Z,4.60
2023-06-03T23:02:10.585Z,4.60
2023-06-03T23:07:13.810Z,4.50
2023-06-03T23:12:17.104Z,4.60
2023-06-03T23:17:20.053Z,4.50
2023-06-03T23:22:23.044Z,5.00
2023-06-03T23:27:26.037Z,4.80
2023-06-03T23:32:29.150Z,5.10
2023-06-03T23:37:33.610Z,4.70
2023-06-03T23:42:36.874Z,5.40
2023-06-03T23:47:39.822Z,5.10
2023-06-03T23:52:42.691Z,5.20
2023-06-03T23:57:45.778Z,5.60
